sensor_id;sensor_type;location;lat;lon;timestamp;pressure;altitude;pressure_sealevel;temperature;humidity
36386;BME280;24125;47.482;8.770;2023-05-29T00:02:01;96115.56;;;16.15;60.83
36386;BME280;24125;47.482;8.770;2023-05-29T00:04:34;96118.94;;;16.08;60.64
36386;BME280;24125;47.482;8.770;2023-05-29T00:07:07;96116.84;;;15.98;60.90
36386;BME280;24125;47.482;8.770;2023-05-29T00:09:40;96123.25;;;15.90;60.60
36386;BME280;24125;47.482;8.770;2023-05-29T00:12:14;96119.66;;;15.82;60.81
36386;BME280;24125;47.482;8.770;2023-05-29T00:14:47;96118.75;;;15.75;60.66
36386;BME280;24125;47.482;8.770;2023-05-29T00:17:20;96121.31;;;15.68;60.76
36386;BME280;24125;47.482;8.770;2023-05-29T00:19:53;96114.28;;;15.60;61.09
36386;BME280;24125;47.482;8.770;2023-05-29T00:22:25;96115.25;;;15.52;61.08
36386;BME280;24125;47.482;8.770;2023-05-29T00:24:58;96116.69;;;15.45;60.95
36386;BME280;24125;47.482;8.770;2023-05-29T00:27:33;96115.00;;;15.37;61.33
36386;BME280;24125;47.482;8.770;2023-05-29T00:30:06;96109.91;;;15.32;61.25
36386;BME280;24125;47.482;8.770;2023-05-29T00:32:39;96106.31;;;15.25;61.29
36386;BME280;24125;47.482;8.770;2023-05-29T00:35:12;96111.56;;;15.18;61.44
36386;BME280;24125;47.482;8.770;2023-05-29T00:37:45;96106.84;;;15.11;61.36
36386;BME280;24125;47.482;8.770;2023-05-29T00:40:17;96108.25;;;15.05;61.42
36386;BME280;24125;47.482;8.770;2023-05-29T00:42:52;96107.31;;;14.97;61.52
36386;BME280;24125;47.482;8.770;2023-05-29T00:45:24;96109.53;;;14.92;61.58
36386;BME280;24125;47.482;8.770;2023-05-29T00:47:57;96114.00;;;14.84;61.86
36386;BME280;24125;47.482;8.770;2023-05-29T00:50:30;96121.97;;;14.81;61.89
36386;BME280;24125;47.482;8.770;2023-05-29T00:53:04;96119.16;;;14.73;61.92
36386;BME280;24125;47.482;8.770;2023-05-29T00:55:39;96116.75;;;14.68;61.96
36386;BME280;24125;47.482;8.770;2023-05-29T00:58:13;96118.13;;;14.62;62.10
36386;BME280;24125;47.482;8.770;2023-05-29T01:00:46;96113.06;;;14.57;62.25
36386;BME280;24125;47.482;8.770;2023-05-29T01:03:19;96118.72;;;14.52;62.08
36386;BME280;24125;47.482;8.770;2023-05-29T01:05:54;96119.75;;;14.48;62.30
36386;BME280;24125;47.482;8.770;2023-05-29T01:08:29;96125.75;;;14.41;62.32
36386;BME280;24125;47.482;8.770;2023-05-29T01:11:04;96118.34;;;14.38;62.45
36386;BME280;24125;47.482;8.770;2023-05-29T01:13:42;96129.72;;;14.31;62.61
36386;BME280;24125;47.482;8.770;2023-05-29T01:16:18;96125.41;;;14.27;62.37
36386;BME280;24125;47.482;8.770;2023-05-29T01:18:59;96119.19;;;14.23;62.34
36386;BME280;24125;47.482;8.770;2023-05-29T01:21:37;96122.13;;;14.18;62.58
36386;BME280;24125;47.482;8.770;2023-05-29T01:24:16;96133.56;;;14.15;62.67
36386;BME280;24125;47.482;8.770;2023-05-29T01:26:53;96131.13;;;14.10;62.49
36386;BME280;24125;47.482;8.770;2023-05-29T01:29:29;96133.31;;;14.04;62.85
36386;BME280;24125;47.482;8.770;2023-05-29T01:32:02;96125.19;;;14.01;62.79
36386;BME280;24125;47.482;8.770;2023-05-29T01:34:35;96127.78;;;13.97;63.03
36386;BME280;24125;47.482;8.770;2023-05-29T01:37:08;96131.50;;;13.92;63.22
36386;BME280;24125;47.482;8.770;2023-05-29T01:39:41;96133.78;;;13.90;63.21
36386;BME280;24125;47.482;8.770;2023-05-29T01:42:15;96132.09;;;13.86;63.11
36386;BME280;24125;47.482;8.770;2023-05-29T01:44:48;96134.72;;;13.82;63.25
36386;BME280;24125;47.482;8.770;2023-05-29T01:47:21;96138.88;;;13.80;63.28
36386;BME280;24125;47.482;8.770;2023-05-29T01:49:55;96131.09;;;13.75;63.18
36386;BME280;24125;47.482;8.770;2023-05-29T01:52:28;96131.78;;;13.72;62.99
36386;BME280;24125;47.482;8.770;2023-05-29T01:55:01;96133.22;;;13.69;63.17
36386;BME280;24125;47.482;8.770;2023-05-29T01:57:36;96138.88;;;13.64;63.08
36386;BME280;24125;47.482;8.770;2023-05-29T02:00:09;96124.22;;;13.62;63.57
36386;BME280;24125;47.482;8.770;2023-05-29T02:02:43;96135.63;;;13.58;63.48
36386;BME280;24125;47.482;8.770;2023-05-29T02:05:16;96131.31;;;13.54;63.58
36386;BME280;24125;47.482;8.770;2023-05-29T02:07:49;96131.66;;;13.52;63.69
36386;BME280;24125;47.482;8.770;2023-05-29T02:10:21;96128.13;;;13.48;63.40
36386;BME280;24125;47.482;8.770;2023-05-29T02:12:56;96127.25;;;13.44;63.13
36386;BME280;24125;47.482;8.770;2023-05-29T02:15:28;96124.47;;;13.41;63.60
36386;BME280;24125;47.482;8.770;2023-05-29T02:18:01;96127.84;;;13.38;63.34
36386;BME280;24125;47.482;8.770;2023-05-29T02:20:34;96130.09;;;13.36;63.64
36386;BME280;24125;47.482;8.770;2023-05-29T02:23:07;96124.63;;;13.32;63.47
36386;BME280;24125;47.482;8.770;2023-05-29T02:25:40;96124.53;;;13.29;63.35
36386;BME280;24125;47.482;8.770;2023-05-29T02:28:15;96131.03;;;13.28;63.44
36386;BME280;24125;47.482;8.770;2023-05-29T02:30:47;96135.50;;;13.23;63.72
36386;BME280;24125;47.482;8.770;2023-05-29T02:33:20;96129.28;;;13.19;63.42
36386;BME280;24125;47.482;8.770;2023-05-29T02:35:53;96131.50;;;13.17;63.84
36386;BME280;24125;47.482;8.770;2023-05-29T02:38:26;96132.22;;;13.14;63.55
36386;BME280;24125;47.482;8.770;2023-05-29T02:40:58;96123.25;;;13.10;63.92
36386;BME280;24125;47.482;8.770;2023-05-29T02:43:33;96120.47;;;13.07;63.45
36386;BME280;24125;47.482;8.770;2023-05-29T02:46:06;96126.97;;;13.06;63.67
36386;BME280;24125;47.482;8.770;2023-05-29T02:48:39;96122.28;;;13.03;63.78
36386;BME280;24125;47.482;8.770;2023-05-29T02:51:12;96126.44;;;13.00;63.92
36386;BME280;24125;47.482;8.770;2023-05-29T02:53:45;96128.66;;;12.98;64.21
36386;BME280;24125;47.482;8.770;2023-05-29T02:56:17;96126.69;;;12.95;64.01
36386;BME280;24125;47.482;8.770;2023-05-29T02:58:56;96129.69;;;12.94;64.29
36386;BME280;24125;47.482;8.770;2023-05-29T03:01:29;96124.22;;;12.90;64.02
36386;BME280;24125;47.482;8.770;2023-05-29T03:04:04;96124.94;;;12.87;64.32
36386;BME280;24125;47.482;8.770;2023-05-29T03:06:37;96130.63;;;12.85;64.36
36386;BME280;24125;47.482;8.770;2023-05-29T03:09:10;96129.38;;;12.83;63.97
36386;BME280;24125;47.482;8.770;2023-05-29T03:11:43;96125.84;;;12.79;64.17
36386;BME280;24125;47.482;8.770;2023-05-29T03:14:20;96127.28;;;12.76;64.53
36386;BME280;24125;47.482;8.770;2023-05-29T03:16:53;96122.59;;;12.73;64.12
36386;BME280;24125;47.482;8.770;2023-05-29T03:19:26;96125.97;;;12.70;64.42
36386;BME280;24125;47.482;8.770;2023-05-29T03:21:59;96129.00;;;12.69;63.92
36386;BME280;24125;47.482;8.770;2023-05-29T03:24:31;96134.69;;;12.67;64.58
36386;BME280;24125;47.482;8.770;2023-05-29T03:27:06;96139.16;;;12.63;64.70
36386;BME280;24125;47.482;8.770;2023-05-29T03:29:41;96135.28;;;12.61;64.70
36386;BME280;24125;47.482;8.770;2023-05-29T03:32:13;96135.94;;;12.58;64.62
36386;BME280;24125;47.482;8.770;2023-05-29T03:34:46;96137.06;;;12.57;64.15
36386;BME280;24125;47.482;8.770;2023-05-29T03:37:19;96138.88;;;12.53;64.90
36386;BME280;24125;47.482;8.770;2023-05-29T03:39:52;96140.31;;;12.50;64.58
36386;BME280;24125;47.482;8.770;2023-05-29T03:42:25;96140.31;;;12.50;65.06
36386;BME280;24125;47.482;8.770;2023-05-29T03:44:59;96142.53;;;12.48;65.01
36386;BME280;24125;47.482;8.770;2023-05-29T03:47:32;96147.09;;;12.47;64.78
36386;BME280;24125;47.482;8.770;2023-05-29T03:50:05;96145.91;;;12.45;65.22
36386;BME280;24125;47.482;8.770;2023-05-29T03:52:38;96154.28;;;12.43;64.98
36386;BME280;24125;47.482;8.770;2023-05-29T03:55:12;96150.03;;;12.42;65.32
36386;BME280;24125;47.482;8.770;2023-05-29T03:57:46;96156.94;;;12.43;65.21
36386;BME280;24125;47.482;8.770;2023-05-29T04:00:20;96153.16;;;12.44;64.83
36386;BME280;24125;47.482;8.770;2023-05-29T04:02:54;96154.28;;;12.43;65.31
36386;BME280;24125;47.482;8.770;2023-05-29T04:05:28;96153.16;;;12.44;65.94
36386;BME280;24125;47.482;8.770;2023-05-29T04:08:00;96152.47;;;12.47;65.37
36386;BME280;24125;47.482;8.770;2023-05-29T04:10:46;96162.06;;;12.48;65.71
36386;BME280;24125;47.482;8.770;2023-05-29T04:13:19;96160.63;;;12.51;66.07
36386;BME280;24125;47.482;8.770;2023-05-29T04:15:53;96166.41;;;12.53;66.26
36386;BME280;24125;47.482;8.770;2023-05-29T04:18:26;96163.84;;;12.57;65.85
36386;BME280;24125;47.482;8.770;2023-05-29T04:20:59;96173.88;;;12.60;65.85
36386;BME280;24125;47.482;8.770;2023-05-29T04:23:32;96166.72;;;12.64;65.99
36386;BME280;24125;47.482;8.770;2023-05-29T04:26:04;96164.47;;;12.66;66.13
36386;BME280;24125;47.482;8.770;2023-05-29T04:28:38;96165.38;;;12.70;66.05
36386;BME280;24125;47.482;8.770;2023-05-29T04:31:12;96167.03;;;12.74;66.18
36386;BME280;24125;47.482;8.770;2023-05-29T04:33:47;96167.16;;;12.78;65.90
36386;BME280;24125;47.482;8.770;2023-05-29T04:36:21;96170.34;;;12.83;66.45
36386;BME280;24125;47.482;8.770;2023-05-29T04:38:57;96169.34;;;12.88;66.39
36386;BME280;24125;47.482;8.770;2023-05-29T04:41:29;96173.34;;;12.94;66.18
36386;BME280;24125;47.482;8.770;2023-05-29T04:44:02;96182.69;;;13.00;66.17
36386;BME280;24125;47.482;8.770;2023-05-29T04:46:37;96182.56;;;13.09;66.86
36386;BME280;24125;47.482;8.770;2023-05-29T04:49:09;96177.09;;;13.17;67.19
36386;BME280;24125;47.482;8.770;2023-05-29T04:51:44;96179.38;;;13.31;68.36
36386;BME280;24125;47.482;8.770;2023-05-29T04:54:17;96177.59;;;13.51;69.21
36386;BME280;24125;47.482;8.770;2023-05-29T04:56:51;96183.69;;;13.79;70.21
36386;BME280;24125;47.482;8.770;2023-05-29T04:59:23;96183.28;;;14.09;70.55
36386;BME280;24125;47.482;8.770;2023-05-29T05:01:59;96186.47;;;14.46;71.17
36386;BME280;24125;47.482;8.770;2023-05-29T05:04:31;96183.53;;;14.86;71.82
36386;BME280;24125;47.482;8.770;2023-05-29T05:07:04;96189.78;;;15.28;71.97
36386;BME280;24125;47.482;8.770;2023-05-29T05:09:37;96187.56;;;15.72;72.41
36386;BME280;24125;47.482;8.770;2023-05-29T05:12:10;96186.75;;;16.17;72.27
36386;BME280;24125;47.482;8.770;2023-05-29T05:14:43;96194.03;;;16.63;72.63
36386;BME280;24125;47.482;8.770;2023-05-29T05:17:17;96197.34;;;17.09;72.31
36386;BME280;24125;47.482;8.770;2023-05-29T05:19:50;96200.63;;;17.55;72.12
36386;BME280;24125;47.482;8.770;2023-05-29T05:22:23;96195.28;;;17.99;71.81
36386;BME280;24125;47.482;8.770;2023-05-29T05:24:56;96204.16;;;18.43;71.42
36386;BME280;24125;47.482;8.770;2023-05-29T05:27:30;96207.16;;;18.86;71.34
36386;BME280;24125;47.482;8.770;2023-05-29T05:30:03;96199.25;;;19.25;71.02
36386;BME280;24125;47.482;8.770;2023-05-29T05:32:38;96192.84;;;19.65;70.47
36386;BME280;24125;47.482;8.770;2023-05-29T05:35:11;96201.44;;;20.03;70.18
36386;BME280;24125;47.482;8.770;2023-05-29T05:37:44;96212.31;;;20.42;70.11
36386;BME280;24125;47.482;8.770;2023-05-29T05:40:17;96210.75;;;20.76;70.23
36386;BME280;24125;47.482;8.770;2023-05-29T05:42:50;96215.34;;;21.11;69.90
36386;BME280;24125;47.482;8.770;2023-05-29T05:45:23;96209.81;;;21.46;69.18
36386;BME280;24125;47.482;8.770;2023-05-29T05:47:57;96205.00;;;21.79;68.90
36386;BME280;24125;47.482;8.770;2023-05-29T05:50:30;96211.03;;;22.11;68.85
36386;BME280;24125;47.482;8.770;2023-05-29T05:53:03;96207.31;;;22.43;68.74
36386;BME280;24125;47.482;8.770;2023-05-29T05:55:37;96209.03;;;22.74;68.15
36386;BME280;24125;47.482;8.770;2023-05-29T05:58:09;96211.81;;;23.05;68.50
36386;BME280;24125;47.482;8.770;2023-05-29T06:00:42;96210.75;;;23.32;69.14
36386;BME280;24125;47.482;8.770;2023-05-29T06:03:16;96212.38;;;23.60;67.81
36386;BME280;24125;47.482;8.770;2023-05-29T06:05:49;96211.66;;;23.87;67.36
36386;BME280;24125;47.482;8.770;2023-05-29T06:08:24;96210.09;;;24.13;66.75
36386;BME280;24125;47.482;8.770;2023-05-29T06:10:56;96217.16;;;24.37;67.54
36386;BME280;24125;47.482;8.770;2023-05-29T06:13:29;96221.50;;;24.58;66.80
36386;BME280;24125;47.482;8.770;2023-05-29T06:16:02;96215.69;;;24.79;67.49
36386;BME280;24125;47.482;8.770;2023-05-29T06:18:36;96207.56;;;24.99;66.77
36386;BME280;24125;47.482;8.770;2023-05-29T06:21:09;96213.03;;;25.18;66.96
36386;BME280;24125;47.482;8.770;2023-05-29T06:23:42;96208.00;;;25.37;66.43
36386;BME280;24125;47.482;8.770;2023-05-29T06:26:15;96215.44;;;25.56;65.82
36386;BME280;24125;47.482;8.770;2023-05-29T06:28:48;96213.56;;;25.73;66.61
36386;BME280;24125;47.482;8.770;2023-05-29T06:31:21;96201.88;;;25.88;65.05
36386;BME280;24125;47.482;8.770;2023-05-29T06:33:55;96205.09;;;26.03;65.23
36386;BME280;24125;47.482;8.770;2023-05-29T06:36:28;96212.19;;;26.17;60.79
36386;BME280;24125;47.482;8.770;2023-05-29T06:39:03;96219.00;;;26.28;63.56
36386;BME280;24125;47.482;8.770;2023-05-29T06:41:36;96221.13;;;26.37;61.73
36386;BME280;24125;47.482;8.770;2023-05-29T06:44:09;96216.25;;;26.45;64.16
36386;BME280;24125;47.482;8.770;2023-05-29T06:46:44;96220.09;;;26.47;57.68
36386;BME280;24125;47.482;8.770;2023-05-29T06:49:18;96208.81;;;26.45;49.26
36386;BME280;24125;47.482;8.770;2023-05-29T06:51:51;96222.66;;;26.38;56.32
36386;BME280;24125;47.482;8.770;2023-05-29T06:54:24;96219.81;;;26.25;57.43
36386;BME280;24125;47.482;8.770;2023-05-29T06:56:57;96222.59;;;26.06;58.66
36386;BME280;24125;47.482;8.770;2023-05-29T06:59:41;96223.97;;;25.78;52.08
36386;BME280;24125;47.482;8.770;2023-05-29T07:02:14;96225.31;;;25.50;48.55
36386;BME280;24125;47.482;8.770;2023-05-29T07:04:48;96220.81;;;25.20;55.22
36386;BME280;24125;47.482;8.770;2023-05-29T07:07:21;96228.75;;;24.91;54.50
36386;BME280;24125;47.482;8.770;2023-05-29T07:09:54;96219.84;;;24.64;57.43
36386;BME280;24125;47.482;8.770;2023-05-29T07:12:27;96217.94;;;24.37;54.50
36386;BME280;24125;47.482;8.770;2023-05-29T07:15:00;96219.81;;;24.14;55.83
36386;BME280;24125;47.482;8.770;2023-05-29T07:17:32;96228.31;;;23.92;55.04
36386;BME280;24125;47.482;8.770;2023-05-29T07:20:09;96231.28;;;23.75;56.41
36386;BME280;24125;47.482;8.770;2023-05-29T07:22:42;96228.00;;;23.56;57.13
36386;BME280;24125;47.482;8.770;2023-05-29T07:25:15;96216.06;;;23.43;56.35
36386;BME280;24125;47.482;8.770;2023-05-29T07:27:47;96231.75;;;23.32;53.93
36386;BME280;24125;47.482;8.770;2023-05-29T07:30:20;96226.78;;;23.23;57.87
36386;BME280;24125;47.482;8.770;2023-05-29T07:32:53;96230.38;;;23.17;56.94
36386;BME280;24125;47.482;8.770;2023-05-29T07:35:28;96226.13;;;23.12;57.25
36386;BME280;24125;47.482;8.770;2023-05-29T07:38:03;96226.94;;;23.09;57.16
36386;BME280;24125;47.482;8.770;2023-05-29T07:40:37;96222.63;;;23.12;59.08
36386;BME280;24125;47.482;8.770;2023-05-29T07:43:12;96219.13;;;23.11;57.83
36386;BME280;24125;47.482;8.770;2023-05-29T07:45:45;96228.06;;;23.15;56.82
36386;BME280;24125;47.482;8.770;2023-05-29T07:48:18;96221.00;;;23.18;58.83
36386;BME280;24125;47.482;8.770;2023-05-29T07:50:55;96223.28;;;23.23;58.46
36386;BME280;24125;47.482;8.770;2023-05-29T07:53:28;96226.75;;;23.27;59.63
36386;BME280;24125;47.482;8.770;2023-05-29T07:56:01;96234.09;;;23.30;57.32
36386;BME280;24125;47.482;8.770;2023-05-29T07:58:33;96231.75;;;23.32;58.28
36386;BME280;24125;47.482;8.770;2023-05-29T08:01:06;96230.97;;;23.35;57.82
36386;BME280;24125;47.482;8.770;2023-05-29T08:03:41;96232.84;;;23.38;58.13
36386;BME280;24125;47.482;8.770;2023-05-29T08:06:16;96230.13;;;23.38;56.50
36386;BME280;24125;47.482;8.770;2023-05-29T08:08:52;96229.72;;;23.40;54.59
36386;BME280;24125;47.482;8.770;2023-05-29T08:11:25;96228.53;;;23.41;56.61
36386;BME280;24125;47.482;8.770;2023-05-29T08:13:58;96226.59;;;23.41;55.03
36386;BME280;24125;47.482;8.770;2023-05-29T08:16:31;96226.97;;;23.43;56.47
36386;BME280;24125;47.482;8.770;2023-05-29T08:19:04;96221.88;;;23.45;57.61
36386;BME280;24125;47.482;8.770;2023-05-29T08:21:38;96221.06;;;23.48;56.83
36386;BME280;24125;47.482;8.770;2023-05-29T08:24:12;96223.00;;;23.51;57.82
36386;BME280;24125;47.482;8.770;2023-05-29T08:26:45;96228.38;;;23.58;58.99
36386;BME280;24125;47.482;8.770;2023-05-29T08:29:18;96213.09;;;23.64;58.27
36386;BME280;24125;47.482;8.770;2023-05-29T08:31:51;96219.22;;;23.72;57.79
36386;BME280;24125;47.482;8.770;2023-05-29T08:34:24;96217.94;;;23.80;59.12
36386;BME280;24125;47.482;8.770;2023-05-29T08:36:58;96221.34;;;23.88;58.05
36386;BME280;24125;47.482;8.770;2023-05-29T08:39:31;96224.41;;;23.93;54.51
36386;BME280;24125;47.482;8.770;2023-05-29T08:42:04;96225.06;;;24.01;57.52
36386;BME280;24125;47.482;8.770;2023-05-29T08:44:39;96235.09;;;24.07;59.04
36386;BME280;24125;47.482;8.770;2023-05-29T08:47:12;96219.47;;;24.12;57.20
36386;BME280;24125;47.482;8.770;2023-05-29T08:49:52;96227.53;;;24.19;58.40
36386;BME280;24125;47.482;8.770;2023-05-29T08:52:27;96224.78;;;24.22;57.25
36386;BME280;24125;47.482;8.770;2023-05-29T08:55:01;96226.69;;;24.25;56.56
36386;BME280;24125;47.482;8.770;2023-05-29T08:57:34;96239.44;;;24.32;57.85
36386;BME280;24125;47.482;8.770;2023-05-29T09:00:09;96233.53;;;24.37;57.57
36386;BME280;24125;47.482;8.770;2023-05-29T09:02:44;96233.06;;;24.42;56.35
36386;BME280;24125;47.482;8.770;2023-05-29T09:05:17;96233.34;;;24.48;55.85
36386;BME280;24125;47.482;8.770;2023-05-29T09:07:52;96236.03;;;24.51;55.15
36386;BME280;24125;47.482;8.770;2023-05-29T09:10:25;96234.81;;;24.56;53.86
36386;BME280;24125;47.482;8.770;2023-05-29T09:12:58;96230.81;;;24.60;48.72
36386;BME280;24125;47.482;8.770;2023-05-29T09:15:31;96229.59;;;24.65;54.17
36386;BME280;24125;47.482;8.770;2023-05-29T09:18:05;96230.28;;;24.69;56.29
36386;BME280;24125;47.482;8.770;2023-05-29T09:20:39;96237.25;;;24.73;54.81
36386;BME280;24125;47.482;8.770;2023-05-29T09:23:13;96234.03;;;24.78;56.04
36386;BME280;24125;47.482;8.770;2023-05-29T09:25:50;96225.72;;;24.86;55.41
36386;BME280;24125;47.482;8.770;2023-05-29T09:28:23;96232.25;;;24.92;55.56
36386;BME280;24125;47.482;8.770;2023-05-29T09:30:58;96234.88;;;24.99;56.51
36386;BME280;24125;47.482;8.770;2023-05-29T09:33:31;96232.38;;;25.08;56.09
36386;BME280;24125;47.482;8.770;2023-05-29T09:36:03;96224.81;;;25.15;56.34
36386;BME280;24125;47.482;8.770;2023-05-29T09:38:38;96235.97;;;25.25;55.96
36386;BME280;24125;47.482;8.770;2023-05-29T09:41:23;96248.72;;;25.31;47.88
36386;BME280;24125;47.482;8.770;2023-05-29T09:43:57;96238.84;;;25.37;51.59
36386;BME280;24125;47.482;8.770;2023-05-29T09:46:33;96237.16;;;25.43;53.86
36386;BME280;24125;47.482;8.770;2023-05-29T09:49:08;96230.03;;;25.49;54.67
36386;BME280;24125;47.482;8.770;2023-05-29T09:51:42;96228.31;;;25.55;54.76
36386;BME280;24125;47.482;8.770;2023-05-29T09:54:20;96235.28;;;25.60;54.39
36386;BME280;24125;47.482;8.770;2023-05-29T09:56:53;96234.44;;;25.63;53.17
36386;BME280;24125;47.482;8.770;2023-05-29T09:59:26;96247.63;;;25.68;54.61
36386;BME280;24125;47.482;8.770;2023-05-29T10:02:00;96238.94;;;25.73;54.03
36386;BME280;24125;47.482;8.770;2023-05-29T10:04:35;96235.69;;;25.78;53.83
36386;BME280;24125;47.482;8.770;2023-05-29T10:07:08;96240.25;;;25.85;51.75
36386;BME280;24125;47.482;8.770;2023-05-29T10:09:44;96240.16;;;25.88;54.39
36386;BME280;24125;47.482;8.770;2023-05-29T10:12:19;96226.78;;;25.94;53.34
36386;BME280;24125;47.482;8.770;2023-05-29T10:14:53;96217.72;;;25.97;53.51
36386;BME280;24125;47.482;8.770;2023-05-29T10:17:28;96221.91;;;26.02;53.51
36386;BME280;24125;47.482;8.770;2023-05-29T10:20:05;96225.34;;;26.06;54.00
36386;BME280;24125;47.482;8.770;2023-05-29T10:22:39;96213.53;;;26.09;50.12
36386;BME280;24125;47.482;8.770;2023-05-29T10:25:14;96220.81;;;26.15;54.17
36386;BME280;24125;47.482;8.770;2023-05-29T10:27:50;96222.28;;;26.20;52.30
36386;BME280;24125;47.482;8.770;2023-05-29T10:30:25;96235.88;;;26.23;53.13
36386;BME280;24125;47.482;8.770;2023-05-29T10:33:04;96221.00;;;26.24;43.48
36386;BME280;24125;47.482;8.770;2023-05-29T10:35:42;96211.09;;;26.30;52.15
36386;BME280;24125;47.482;8.770;2023-05-29T10:38:17;96207.09;;;26.35;53.02
36386;BME280;24125;47.482;8.770;2023-05-29T10:40:52;96208.97;;;26.38;53.16
36386;BME280;24125;47.482;8.770;2023-05-29T10:43:31;96194.03;;;26.43;52.73
36386;BME280;24125;47.482;8.770;2023-05-29T10:46:04;96200.16;;;26.47;53.35
36386;BME280;24125;47.482;8.770;2023-05-29T10:48:38;96211.03;;;26.50;51.41
36386;BME280;24125;47.482;8.770;2023-05-29T10:51:25;96222.22;;;26.56;51.45
36386;BME280;24125;47.482;8.770;2023-05-29T10:53:58;96211.63;;;26.58;50.33
36386;BME280;24125;47.482;8.770;2023-05-29T10:56:32;96211.97;;;26.60;49.89
36386;BME280;24125;47.482;8.770;2023-05-29T10:59:06;96209.16;;;26.63;46.51
36386;BME280;24125;47.482;8.770;2023-05-29T11:01:40;96209.91;;;26.64;49.43
36386;BME280;24125;47.482;8.770;2023-05-29T11:04:28;96200.94;;;26.63;47.21
36386;BME280;24125;47.482;8.770;2023-05-29T11:07:03;96200.94;;;26.63;50.04
36386;BME280;24125;47.482;8.770;2023-05-29T11:09:38;96197.44;;;26.63;45.05
36386;BME280;24125;47.482;8.770;2023-05-29T11:12:14;96187.56;;;26.65;49.95
36386;BME280;24125;47.482;8.770;2023-05-29T11:14:55;96193.41;;;26.67;50.34
36386;BME280;24125;47.482;8.770;2023-05-29T11:17:29;96196.13;;;26.67;47.30
36386;BME280;24125;47.482;8.770;2023-05-29T11:20:02;96187.06;;;26.71;50.14
36386;BME280;24125;47.482;8.770;2023-05-29T11:22:44;96191.66;;;26.74;51.54
36386;BME280;24125;47.482;8.770;2023-05-29T11:25:19;96198.69;;;26.75;51.49
36386;BME280;24125;47.482;8.770;2023-05-29T11:27:54;96188.84;;;26.77;49.31
36386;BME280;24125;47.482;8.770;2023-05-29T11:30:27;96180.97;;;26.79;50.06
36386;BME280;24125;47.482;8.770;2023-05-29T11:33:01;96186.03;;;26.81;49.77
36386;BME280;24125;47.482;8.770;2023-05-29T11:35:34;96181.66;;;26.83;49.60
36386;BME280;24125;47.482;8.770;2023-05-29T11:38:07;96172.56;;;26.86;49.32
36386;BME280;24125;47.482;8.770;2023-05-29T11:40:40;96184.66;;;26.89;48.44
36386;BME280;24125;47.482;8.770;2023-05-29T11:43:14;96186.16;;;26.90;48.17
36386;BME280;24125;47.482;8.770;2023-05-29T11:45:49;96183.41;;;26.90;43.82
36386;BME280;24125;47.482;8.770;2023-05-29T11:48:22;96180.69;;;26.90;40.08
36386;BME280;24125;47.482;8.770;2023-05-29T11:50:55;96179.50;;;26.91;44.51
36386;BME280;24125;47.482;8.770;2023-05-29T11:53:28;96170.09;;;26.92;47.28
36386;BME280;24125;47.482;8.770;2023-05-29T11:56:06;96170.88;;;26.92;47.96
36386;BME280;24125;47.482;8.770;2023-05-29T11:58:40;96153.25;;;26.93;47.23
36386;BME280;24125;47.482;8.770;2023-05-29T12:01:16;96168.03;;;26.96;47.80
36386;BME280;24125;47.482;8.770;2023-05-29T12:03:50;96160.16;;;26.98;49.80
36386;BME280;24125;47.482;8.770;2023-05-29T12:06:33;96176.94;;;27.00;41.40
36386;BME280;24125;47.482;8.770;2023-05-29T12:09:06;96176.41;;;27.05;48.86
36386;BME280;24125;47.482;8.770;2023-05-29T12:11:40;96179.47;;;27.07;48.42
36386;BME280;24125;47.482;8.770;2023-05-29T12:14:14;96174.69;;;27.11;49.73
36386;BME280;24125;47.482;8.770;2023-05-29T12:16:47;96182.03;;;27.14;49.41
36386;BME280;24125;47.482;8.770;2023-05-29T12:19:20;96176.88;;;27.16;48.37
36386;BME280;24125;47.482;8.770;2023-05-29T12:21:53;96189.38;;;27.17;48.53
36386;BME280;24125;47.482;8.770;2023-05-29T12:24:26;96170.53;;;27.19;42.28
36386;BME280;24125;47.482;8.770;2023-05-29T12:27:13;96191.25;;;27.20;48.12
36386;BME280;24125;47.482;8.770;2023-05-29T12:29:48;96168.47;;;27.23;48.30
36386;BME280;24125;47.482;8.770;2023-05-29T12:32:20;96170.03;;;27.24;48.04
36386;BME280;24125;47.482;8.770;2023-05-29T12:34:54;96173.50;;;27.25;45.01
36386;BME280;24125;47.482;8.770;2023-05-29T12:37:26;96189.09;;;27.28;47.95
36386;BME280;24125;47.482;8.770;2023-05-29T12:40:08;96163.22;;;27.29;47.10
36386;BME280;24125;47.482;8.770;2023-05-29T12:42:41;96156.13;;;27.31;48.19
36386;BME280;24125;47.482;8.770;2023-05-29T12:45:17;96176.50;;;27.30;44.93
36386;BME280;24125;47.482;8.770;2023-05-29T12:47:50;96176.84;;;27.32;46.43
36386;BME280;24125;47.482;8.770;2023-05-29T12:50:24;96152.94;;;27.33;45.16
36386;BME280;24125;47.482;8.770;2023-05-29T12:52:58;96168.16;;;27.34;44.61
36386;BME280;24125;47.482;8.770;2023-05-29T12:55:31;96165.00;;;27.35;45.71
36386;BME280;24125;47.482;8.770;2023-05-29T12:58:08;96170.81;;;27.37;44.82
36386;BME280;24125;47.482;8.770;2023-05-29T13:00:43;96171.16;;;27.39;45.48
36386;BME280;24125;47.482;8.770;2023-05-29T13:03:16;96178.50;;;27.42;46.24
36386;BME280;24125;47.482;8.770;2023-05-29T13:05:49;96177.63;;;27.46;45.08
36386;BME280;24125;47.482;8.770;2023-05-29T13:08:22;96174.88;;;27.46;42.17
36386;BME280;24125;47.482;8.770;2023-05-29T13:10:55;96164.69;;;27.46;43.96
36386;BME280;24125;47.482;8.770;2023-05-29T13:13:28;96174.47;;;27.47;42.88
36386;BME280;24125;47.482;8.770;2023-05-29T13:16:02;96169.75;;;27.48;43.34
36386;BME280;24125;47.482;8.770;2023-05-29T13:18:35;96168.13;;;27.50;45.05
36386;BME280;24125;47.482;8.770;2023-05-29T13:21:07;96160.63;;;27.51;45.22
36386;BME280;24125;47.482;8.770;2023-05-29T13:23:41;96153.94;;;27.52;42.42
36386;BME280;24125;47.482;8.770;2023-05-29T13:26:14;96179.00;;;27.54;44.08
36386;BME280;24125;47.482;8.770;2023-05-29T13:28:47;96159.00;;;27.53;39.99
36386;BME280;24125;47.482;8.770;2023-05-29T13:31:21;96164.84;;;27.55;42.30
36386;BME280;24125;47.482;8.770;2023-05-29T13:33:54;96157.38;;;27.56;42.14
36386;BME280;24125;47.482;8.770;2023-05-29T13:36:27;96183.28;;;27.55;42.69